sensor_id;sensor_type;location;lat;lon;timestamp;pressure;altitude;pressure_sealevel;temperature;humidity
40946;BME280;55635;50.264;11.918;2022-09-03T00:00:26;95594.28;;;13.86;58.07
40946;BME280;55635;50.264;11.918;2022-09-03T00:06:38;95597.16;;;13.91;58.42
40946;BME280;55635;50.264;11.918;2022-09-03T00:09:32;95597.16;;;13.78;58.54
40946;BME280;55635;50.264;11.918;2022-09-03T00:12:35;95597.53;;;13.94;58.03
40946;BME280;55635;50.264;11.918;2022-09-03T00:15:21;95602.50;;;13.91;59.16
40946;BME280;55635;50.264;11.918;2022-09-03T00:18:17;95594.69;;;13.89;58.89
40946;BME280;55635;50.264;11.918;2022-09-03T00:21:11;95607.41;;;14.00;58.42
40946;BME280;55635;50.264;11.918;2022-09-03T00:23:55;95611.69;;;13.95;58.46
40946;BME280;55635;50.264;11.918;2022-09-03T00:26:42;95603.69;;;13.88;58.78
40946;BME280;55635;50.264;11.918;2022-09-03T00:29:35;95601.06;;;13.82;58.87
40946;BME280;55635;50.264;11.918;2022-09-03T00:32:25;95600.44;;;13.80;59.29
40946;BME280;55635;50.264;11.918;2022-09-03T00:35:26;95593.06;;;13.75;59.55
40946;BME280;55635;50.264;11.918;2022-09-03T00:38:09;95601.25;;;13.60;59.63
40946;BME280;55635;50.264;11.918;2022-09-03T00:46:59;95609.00;;;13.42;60.17
40946;BME280;55635;50.264;11.918;2022-09-03T00:53:16;95619.28;;;13.45;60.74
40946;BME280;55635;50.264;11.918;2022-09-03T00:59:47;95617.41;;;13.39;60.67
40946;BME280;55635;50.264;11.918;2022-09-03T01:03:08;95620.22;;;13.12;60.92
40946;BME280;55635;50.264;11.918;2022-09-03T01:06:17;95619.53;;;12.96;61.62
40946;BME280;55635;50.264;11.918;2022-09-03T01:12:51;95600.44;;;12.80;61.67
40946;BME280;55635;50.264;11.918;2022-09-03T01:26:09;95603.81;;;12.61;64.13
40946;BME280;55635;50.264;11.918;2022-09-03T01:29:23;95610.22;;;12.73;62.98
40946;BME280;55635;50.264;11.918;2022-09-03T01:32:12;95609.56;;;12.64;64.21
40946;BME280;55635;50.264;11.918;2022-09-03T01:35:46;95610.75;;;12.55;63.67
40946;BME280;55635;50.264;11.918;2022-09-03T01:38:52;95605.69;;;12.67;64.07
40946;BME280;55635;50.264;11.918;2022-09-03T01:42:01;95610.44;;;12.71;63.95
40946;BME280;55635;50.264;11.918;2022-09-03T01:51:32;95606.72;;;12.66;63.96
40946;BME280;55635;50.264;11.918;2022-09-03T01:54:25;95607.13;;;12.69;64.57
40946;BME280;55635;50.264;11.918;2022-09-03T02:00:40;95613.28;;;12.70;64.05
40946;BME280;55635;50.264;11.918;2022-09-03T02:03:23;95611.66;;;12.69;64.57
40946;BME280;55635;50.264;11.918;2022-09-03T02:06:07;95611.41;;;12.64;62.64
40946;BME280;55635;50.264;11.918;2022-09-03T02:08:48;95610.13;;;12.53;64.05
40946;BME280;55635;50.264;11.918;2022-09-03T02:11:29;95611.59;;;12.55;63.85
40946;BME280;55635;50.264;11.918;2022-09-03T02:14:13;95607.06;;;12.49;63.16
40946;BME280;55635;50.264;11.918;2022-09-03T02:16:57;95612.16;;;12.51;63.64
40946;BME280;55635;50.264;11.918;2022-09-03T02:19:39;95607.88;;;12.50;63.41
40946;BME280;55635;50.264;11.918;2022-09-03T02:22:20;95606.25;;;12.55;64.87
40946;BME280;55635;50.264;11.918;2022-09-03T02:25:01;95603.81;;;12.61;64.95
40946;BME280;55635;50.264;11.918;2022-09-03T02:27:43;95600.97;;;12.62;64.33
40946;BME280;55635;50.264;11.918;2022-09-03T02:30:25;95597.84;;;12.52;62.78
40946;BME280;55635;50.264;11.918;2022-09-03T02:33:06;95607.56;;;12.32;63.58
40946;BME280;55635;50.264;11.918;2022-09-03T02:35:47;95609.03;;;12.34;64.02
40946;BME280;55635;50.264;11.918;2022-09-03T02:38:28;95607.19;;;12.35;63.72
40946;BME280;55635;50.264;11.918;2022-09-03T02:41:09;95606.19;;;12.42;63.70
40946;BME280;55635;50.264;11.918;2022-09-03T02:44:17;95606.22;;;12.49;64.22
40946;BME280;55635;50.264;11.918;2022-09-03T02:47:07;95594.16;;;12.46;64.79
40946;BME280;55635;50.264;11.918;2022-09-03T02:49:48;95602.94;;;12.47;64.78
40946;BME280;55635;50.264;11.918;2022-09-03T02:52:29;95604.13;;;12.38;65.38
40946;BME280;55635;50.264;11.918;2022-09-03T02:55:10;95604.94;;;12.38;65.81
40946;BME280;55635;50.264;11.918;2022-09-03T02:57:51;95600.69;;;12.44;65.08
40946;BME280;55635;50.264;11.918;2022-09-03T03:00:33;95603.91;;;12.39;65.91
40946;BME280;55635;50.264;11.918;2022-09-03T03:03:15;95598.84;;;12.51;65.44
40946;BME280;55635;50.264;11.918;2022-09-03T03:06:00;95589.91;;;12.59;65.61
40946;BME280;55635;50.264;11.918;2022-09-03T03:08:42;95592.78;;;12.64;65.68
40946;BME280;55635;50.264;11.918;2022-09-03T03:11:23;95600.97;;;12.62;65.15
40946;BME280;55635;50.264;11.918;2022-09-03T03:14:05;95592.66;;;12.37;65.63
40946;BME280;55635;50.264;11.918;2022-09-03T03:16:47;95589.75;;;12.32;64.25
40946;BME280;55635;50.264;11.918;2022-09-03T03:19:28;95591.38;;;12.27;65.38
40946;BME280;55635;50.264;11.918;2022-09-03T03:22:09;95591.75;;;12.24;64.73
40946;BME280;55635;50.264;11.918;2022-09-03T03:24:50;95586.84;;;12.21;65.76
40946;BME280;55635;50.264;11.918;2022-09-03T03:27:32;95601.25;;;11.98;66.57
40946;BME280;55635;50.264;11.918;2022-09-03T03:30:13;95589.22;;;12.09;65.88
40946;BME280;55635;50.264;11.918;2022-09-03T03:32:54;95589.53;;;11.93;66.04
40946;BME280;55635;50.264;11.918;2022-09-03T03:35:36;95584.91;;;12.08;65.97
40946;BME280;55635;50.264;11.918;2022-09-03T03:38:17;95588.56;;;12.00;66.03
40946;BME280;55635;50.264;11.918;2022-09-03T03:40:58;95590.50;;;12.13;66.78
40946;BME280;55635;50.264;11.918;2022-09-03T03:43:39;95590.50;;;12.13;66.23
40946;BME280;55635;50.264;11.918;2022-09-03T03:46:21;95590.13;;;12.23;65.51
40946;BME280;55635;50.264;11.918;2022-09-03T03:49:03;95586.00;;;12.20;66.41
40946;BME280;55635;50.264;11.918;2022-09-03T03:51:46;95586.66;;;12.22;67.54
40946;BME280;55635;50.264;11.918;2022-09-03T03:54:26;95588.75;;;12.33;66.17
40946;BME280;55635;50.264;11.918;2022-09-03T03:57:07;95593.72;;;12.43;65.22
40946;BME280;55635;50.264;11.918;2022-09-03T03:59:48;95579.16;;;12.39;65.84
40946;BME280;55635;50.264;11.918;2022-09-03T04:02:29;95588.19;;;12.38;66.30
40946;BME280;55635;50.264;11.918;2022-09-03T04:05:10;95581.22;;;12.37;65.47
40946;BME280;55635;50.264;11.918;2022-09-03T04:07:51;95567.09;;;12.36;66.16
40946;BME280;55635;50.264;11.918;2022-09-03T04:10:32;95586.97;;;12.40;65.59
40946;BME280;55635;50.264;11.918;2022-09-03T04:13:14;95585.25;;;12.33;66.59
40946;BME280;55635;50.264;11.918;2022-09-03T04:16:13;95572.59;;;12.28;67.25
40946;BME280;55635;50.264;11.918;2022-09-03T04:18:55;95576.50;;;12.39;66.86
40946;BME280;55635;50.264;11.918;2022-09-03T04:21:36;95569.22;;;12.13;65.82
40946;BME280;55635;50.264;11.918;2022-09-03T04:24:17;95575.66;;;11.97;65.93
40946;BME280;55635;50.264;11.918;2022-09-03T04:26:58;95571.22;;;12.05;66.12
40946;BME280;55635;50.264;11.918;2022-09-03T04:29:39;95565.88;;;11.98;67.58
40946;BME280;55635;50.264;11.918;2022-09-03T04:32:20;95570.78;;;12.01;67.38
40946;BME280;55635;50.264;11.918;2022-09-03T04:35:24;95573.53;;;11.86;67.74
40946;BME280;55635;50.264;11.918;2022-09-03T04:38:05;95578.91;;;11.93;67.26
40946;BME280;55635;50.264;11.918;2022-09-03T04:40:53;95579.97;;;11.98;68.22
40946;BME280;55635;50.264;11.918;2022-09-03T04:43:34;95591.00;;;12.02;67.78
40946;BME280;55635;50.264;11.918;2022-09-03T04:46:15;95584.91;;;12.08;67.93
40946;BME280;55635;50.264;11.918;2022-09-03T04:48:56;95590.50;;;12.13;67.51
40946;BME280;55635;50.264;11.918;2022-09-03T04:51:37;95586.88;;;12.27;67.04
40946;BME280;55635;50.264;11.918;2022-09-03T04:54:18;95594.97;;;12.47;67.04
40946;BME280;55635;50.264;11.918;2022-09-03T04:56:59;95591.53;;;12.53;66.52
40946;BME280;55635;50.264;11.918;2022-09-03T04:59:40;95590.31;;;12.55;66.89
40946;BME280;55635;50.264;11.918;2022-09-03T05:02:22;95591.97;;;12.63;66.44
40946;BME280;55635;50.264;11.918;2022-09-03T05:05:03;95596.50;;;12.76;66.10
40946;BME280;55635;50.264;11.918;2022-09-03T05:07:45;95592.78;;;12.64;66.71
40946;BME280;55635;50.264;11.918;2022-09-03T05:10:27;95599.41;;;12.81;66.15
40946;BME280;55635;50.264;11.918;2022-09-03T05:13:08;95599.63;;;12.86;66.58
40946;BME280;55635;50.264;11.918;2022-09-03T05:15:49;95593.28;;;12.87;66.13
40946;BME280;55635;50.264;11.918;2022-09-03T05:18:30;95601.09;;;12.95;65.64
40946;BME280;55635;50.264;11.918;2022-09-03T05:21:16;95601.13;;;13.01;65.85
40946;BME280;55635;50.264;11.918;2022-09-03T05:23:59;95604.47;;;13.17;65.87
40946;BME280;55635;50.264;11.918;2022-09-03T05:26:41;95598.13;;;13.24;65.24
40946;BME280;55635;50.264;11.918;2022-09-03T05:29:21;95601.81;;;13.36;65.87
40946;BME280;55635;50.264;11.918;2022-09-03T05:32:04;95602.47;;;13.38;65.77
40946;BME280;55635;50.264;11.918;2022-09-03T05:34:44;95609.41;;;13.39;65.65
40946;BME280;55635;50.264;11.918;2022-09-03T05:37:25;95607.38;;;13.41;65.95
40946;BME280;55635;50.264;11.918;2022-09-03T05:40:07;95610.47;;;13.45;65.86
40946;BME280;55635;50.264;11.918;2022-09-03T05:42:55;95607.78;;;13.58;66.09
40946;BME280;55635;50.264;11.918;2022-09-03T05:45:38;95614.56;;;13.74;64.84
40946;BME280;55635;50.264;11.918;2022-09-03T05:48:19;95613.97;;;13.85;65.10
40946;BME280;55635;50.264;11.918;2022-09-03T05:51:12;95600.44;;;13.93;64.79
40946;BME280;55635;50.264;11.918;2022-09-03T05:53:57;95579.53;;;13.96;65.14
40946;BME280;55635;50.264;11.918;2022-09-03T05:56:39;95602.88;;;14.14;64.50
40946;BME280;55635;50.264;11.918;2022-09-03T05:59:20;95605.13;;;14.17;65.37
40946;BME280;55635;50.264;11.918;2022-09-03T06:02:01;95606.72;;;14.31;64.63
40946;BME280;55635;50.264;11.918;2022-09-03T06:04:42;95596.66;;;14.53;64.80
40946;BME280;55635;50.264;11.918;2022-09-03T06:07:24;95600.28;;;15.22;63.60
40946;BME280;55635;50.264;11.918;2022-09-03T06:10:05;95596.38;;;15.81;60.65
40946;BME280;55635;50.264;11.918;2022-09-03T06:12:50;95590.78;;;16.14;58.53
40946;BME280;55635;50.264;11.918;2022-09-03T06:15:31;95590.56;;;16.33;56.52
40946;BME280;55635;50.264;11.918;2022-09-03T06:18:12;95582.94;;;16.92;58.93
40946;BME280;55635;50.264;11.918;2022-09-03T06:20:58;95591.41;;;17.55;54.40
40946;BME280;55635;50.264;11.918;2022-09-03T06:23:40;95590.88;;;17.87;54.41
40946;BME280;55635;50.264;11.918;2022-09-03T06:26:22;95596.97;;;18.06;53.58
40946;BME280;55635;50.264;11.918;2022-09-03T06:29:04;95592.78;;;18.80;52.86
40946;BME280;55635;50.264;11.918;2022-09-03T06:31:46;95595.13;;;19.73;49.58
40946;BME280;55635;50.264;11.918;2022-09-03T06:34:28;95583.47;;;20.67;47.97
40946;BME280;55635;50.264;11.918;2022-09-03T06:37:09;95580.09;;;20.98;44.92
40946;BME280;55635;50.264;11.918;2022-09-03T06:39:50;95578.50;;;20.97;44.25
40946;BME280;55635;50.264;11.918;2022-09-03T06:42:31;95590.88;;;20.98;44.35
40946;BME280;55635;50.264;11.918;2022-09-03T06:45:13;95598.72;;;20.78;45.33
40946;BME280;55635;50.264;11.918;2022-09-03T06:47:56;95589.44;;;20.69;44.58
40946;BME280;55635;50.264;11.918;2022-09-03T06:50:37;95590.91;;;20.60;44.70
40946;BME280;55635;50.264;11.918;2022-09-03T06:53:18;95595.75;;;20.41;44.97
40946;BME280;55635;50.264;11.918;2022-09-03T06:56:05;95582.03;;;19.93;45.70
40946;BME280;55635;50.264;11.918;2022-09-03T06:58:47;95591.47;;;19.62;47.32
40946;BME280;55635;50.264;11.918;2022-09-03T07:01:30;95593.88;;;19.47;48.09
40946;BME280;55635;50.264;11.918;2022-09-03T07:04:14;95592.78;;;19.60;48.06
40946;BME280;55635;50.264;11.918;2022-09-03T07:06:59;95584.84;;;19.70;47.39
40946;BME280;55635;50.264;11.918;2022-09-03T07:09:40;95587.25;;;19.83;46.56
40946;BME280;55635;50.264;11.918;2022-09-03T07:12:21;95594.09;;;19.45;47.89
40946;BME280;55635;50.264;11.918;2022-09-03T07:15:02;95589.44;;;19.69;47.56
40946;BME280;55635;50.264;11.918;2022-09-03T07:17:43;95581.06;;;20.16;47.20
40946;BME280;55635;50.264;11.918;2022-09-03T07:20:24;95580.97;;;20.60;45.32
40946;BME280;55635;50.264;11.918;2022-09-03T07:23:05;95580.81;;;20.34;46.56
40946;BME280;55635;50.264;11.918;2022-09-03T07:25:53;95580.03;;;19.55;47.12
40946;BME280;55635;50.264;11.918;2022-09-03T07:28:36;95581.75;;;19.05;48.24
40946;BME280;55635;50.264;11.918;2022-09-03T07:31:24;95582.88;;;19.37;48.77
40946;BME280;55635;50.264;11.918;2022-09-03T07:34:11;95579.06;;;19.61;47.25
40946;BME280;55635;50.264;11.918;2022-09-03T07:36:53;95574.19;;;20.25;46.42
40946;BME280;55635;50.264;11.918;2022-09-03T07:39:34;95577.78;;;20.85;45.95
40946;BME280;55635;50.264;11.918;2022-09-03T07:42:15;95573.84;;;21.63;44.47
40946;BME280;55635;50.264;11.918;2022-09-03T07:44:56;95570.75;;;22.40;42.37
40946;BME280;55635;50.264;11.918;2022-09-03T07:47:46;95562.91;;;22.80;41.53
40946;BME280;55635;50.264;11.918;2022-09-03T07:50:28;95572.69;;;23.53;41.05
40946;BME280;55635;50.264;11.918;2022-09-03T07:53:12;95569.28;;;24.18;40.84
40946;BME280;55635;50.264;11.918;2022-09-03T07:56:00;95570.31;;;25.52;37.92
40946;BME280;55635;50.264;11.918;2022-09-03T07:58:41;95570.06;;;25.49;37.65
40946;BME280;55635;50.264;11.918;2022-09-03T08:01:24;95573.16;;;25.22;36.51
40946;BME280;55635;50.264;11.918;2022-09-03T08:04:07;95577.53;;;25.13;36.43
40946;BME280;55635;50.264;11.918;2022-09-03T08:06:48;95571.00;;;26.12;35.81
40946;BME280;55635;50.264;11.918;2022-09-03T08:09:29;95575.19;;;26.38;36.20
40946;BME280;55635;50.264;11.918;2022-09-03T08:12:12;95558.06;;;26.66;33.88
40946;BME280;55635;50.264;11.918;2022-09-03T08:14:53;95564.66;;;26.60;34.75
40946;BME280;55635;50.264;11.918;2022-09-03T08:17:34;95563.00;;;26.30;33.67
40946;BME280;55635;50.264;11.918;2022-09-03T08:20:15;95568.78;;;26.52;33.74
40946;BME280;55635;50.264;11.918;2022-09-03T08:23:02;95569.91;;;25.15;34.81
40946;BME280;55635;50.264;11.918;2022-09-03T08:25:43;95565.44;;;24.50;36.29
40946;BME280;55635;50.264;11.918;2022-09-03T08:28:25;95563.97;;;22.79;40.15
40946;BME280;55635;50.264;11.918;2022-09-03T08:31:18;95577.28;;;22.49;39.09
40946;BME280;55635;50.264;11.918;2022-09-03T08:34:02;95575.53;;;21.42;40.72
40946;BME280;55635;50.264;11.918;2022-09-03T08:36:46;95568.56;;;21.46;41.60
40946;BME280;55635;50.264;11.918;2022-09-03T08:39:27;95576.88;;;22.30;39.33
40946;BME280;55635;50.264;11.918;2022-09-03T08:45:38;95570.25;;;23.52;38.29
40946;BME280;55635;50.264;11.918;2022-09-03T08:48:21;95571.41;;;23.91;37.12
40946;BME280;55635;50.264;11.918;2022-09-03T08:51:04;95574.97;;;24.27;35.57
40946;BME280;55635;50.264;11.918;2022-09-03T08:53:51;95577.66;;;24.52;36.17
40946;BME280;55635;50.264;11.918;2022-09-03T08:56:39;95567.72;;;25.22;34.47
40946;BME280;55635;50.264;11.918;2022-09-03T08:59:21;95571.66;;;25.55;33.93
40946;BME280;55635;50.264;11.918;2022-09-03T09:02:23;95562.66;;;23.49;35.39
40946;BME280;55635;50.264;11.918;2022-09-03T09:05:13;95561.06;;;22.91;37.60
40946;BME280;55635;50.264;11.918;2022-09-03T09:08:19;95562.78;;;23.12;39.02
40946;BME280;55635;50.264;11.918;2022-09-03T09:17:13;95565.38;;;20.84;41.17
40946;BME280;55635;50.264;11.918;2022-09-03T09:23:46;95556.03;;;21.35;40.85
40946;BME280;55635;50.264;11.918;2022-09-03T09:26:28;95555.56;;;21.70;41.49
40946;BME280;55635;50.264;11.918;2022-09-03T09:29:10;95572.16;;;22.10;41.96
40946;BME280;55635;50.264;11.918;2022-09-03T09:31:53;95558.06;;;21.77;40.37
40946;BME280;55635;50.264;11.918;2022-09-03T09:34:35;95554.84;;;21.26;41.30
40946;BME280;55635;50.264;11.918;2022-09-03T09:37:17;95559.34;;;21.69;42.33
40946;BME280;55635;50.264;11.918;2022-09-03T09:40:00;95562.50;;;21.61;41.22
40946;BME280;55635;50.264;11.918;2022-09-03T09:42:41;95549.25;;;22.60;40.09
40946;BME280;55635;50.264;11.918;2022-09-03T09:45:23;95535.38;;;23.75;39.71
40946;BME280;55635;50.264;11.918;2022-09-03T09:48:20;95547.88;;;24.37;39.42
40946;BME280;55635;50.264;11.918;2022-09-03T09:51:12;95543.22;;;24.48;37.06
40946;BME280;55635;50.264;11.918;2022-09-03T09:54:25;95553.63;;;23.28;38.56
40946;BME280;55635;50.264;11.918;2022-09-03T09:57:16;95550.25;;;22.44;40.27
40946;BME280;55635;50.264;11.918;2022-09-03T10:00:16;95533.09;;;23.37;38.01
40946;BME280;55635;50.264;11.918;2022-09-03T10:02:58;95535.09;;;24.48;37.42
40946;BME280;55635;50.264;11.918;2022-09-03T10:05:39;95532.59;;;23.40;38.61
40946;BME280;55635;50.264;11.918;2022-09-03T10:08:20;95531.22;;;24.74;36.76
40946;BME280;55635;50.264;11.918;2022-09-03T10:11:01;95539.38;;;23.58;38.44
40946;BME280;55635;50.264;11.918;2022-09-03T10:13:45;95543.16;;;23.42;39.30
40946;BME280;55635;50.264;11.918;2022-09-03T10:16:32;95547.16;;;23.29;40.96
40946;BME280;55635;50.264;11.918;2022-09-03T10:19:19;95533.53;;;22.52;40.09
40946;BME280;55635;50.264;11.918;2022-09-03T10:22:11;95544.50;;;21.71;43.10
40946;BME280;55635;50.264;11.918;2022-09-03T10:24:58;95534.66;;;22.61;41.71
40946;BME280;55635;50.264;11.918;2022-09-03T10:27:40;95523.75;;;22.46;40.77
40946;BME280;55635;50.264;11.918;2022-09-03T10:30:25;95522.19;;;23.12;40.18
40946;BME280;55635;50.264;11.918;2022-09-03T10:33:53;95523.97;;;23.68;40.33
40946;BME280;55635;50.264;11.918;2022-09-03T10:49:33;95523.16;;;23.58;39.41
40946;BME280;55635;50.264;11.918;2022-09-03T10:55:47;95520.72;;;23.76;37.62
40946;BME280;55635;50.264;11.918;2022-09-03T10:59:27;95512.06;;;23.95;38.18
40946;BME280;55635;50.264;11.918;2022-09-03T11:05:21;95525.06;;;23.62;38.01
40946;BME280;55635;50.264;11.918;2022-09-03T11:08:11;95505.03;;;23.78;38.18
40946;BME280;55635;50.264;11.918;2022-09-03T11:11:10;95499.84;;;24.58;35.93
40946;BME280;55635;50.264;11.918;2022-09-03T11:14:08;95504.41;;;24.82;34.49
40946;BME280;55635;50.264;11.918;2022-09-03T11:17:02;95500.41;;;24.04;35.62
40946;BME280;55635;50.264;11.918;2022-09-03T11:19:51;95486.63;;;25.10;37.44
40946;BME280;55635;50.264;11.918;2022-09-03T11:22:35;95485.91;;;24.89;35.84
40946;BME280;55635;50.264;11.918;2022-09-03T11:25:21;95473.63;;;25.02;34.23
40946;BME280;55635;50.264;11.918;2022-09-03T11:28:52;95479.38;;;25.50;32.73
40946;BME280;55635;50.264;11.918;2022-09-03T11:34:52;95469.47;;;26.79;32.45
40946;BME280;55635;50.264;11.918;2022-09-03T11:37:32;95462.13;;;26.56;34.15
40946;BME280;55635;50.264;11.918;2022-09-03T11:40:16;95465.47;;;25.90;34.47
40946;BME280;55635;50.264;11.918;2022-09-03T11:49:26;95453.63;;;26.38;33.36
40946;BME280;55635;50.264;11.918;2022-09-03T11:52:07;95456.22;;;25.08;34.97
40946;BME280;55635;50.264;11.918;2022-09-03T11:54:50;95464.47;;;25.37;35.69
40946;BME280;55635;50.264;11.918;2022-09-03T11:57:32;95467.72;;;25.39;33.89
40946;BME280;55635;50.264;11.918;2022-09-03T12:00:19;95454.75;;;27.03;32.41
40946;BME280;55635;50.264;11.918;2022-09-03T12:03:04;95454.69;;;28.34;32.18
40946;BME280;55635;50.264;11.918;2022-09-03T12:15:41;95447.75;;;28.83;29.97
40946;BME280;55635;50.264;11.918;2022-09-03T12:18:33;95454.53;;;28.12;29.93
40946;BME280;55635;50.264;11.918;2022-09-03T12:21:16;95454.47;;;26.34;32.09
40946;BME280;55635;50.264;11.918;2022-09-03T12:23:57;95450.31;;;27.69;30.88
40946;BME280;55635;50.264;11.918;2022-09-03T12:26:42;95453.72;;;27.61;30.25
40946;BME280;55635;50.264;11.918;2022-09-03T12:29:26;95440.88;;;28.72;29.59
40946;BME280;55635;50.264;11.918;2022-09-03T12:32:10;95458.25;;;27.09;32.88
40946;BME280;55635;50.264;11.918;2022-09-03T12:34:53;95455.81;;;27.08;33.63
40946;BME280;55635;50.264;11.918;2022-09-03T12:37:36;95446.66;;;26.27;33.07
40946;BME280;55635;50.264;11.918;2022-09-03T12:40:29;95448.34;;;27.55;32.86
40946;BME280;55635;50.264;11.918;2022-09-03T12:43:16;95447.88;;;26.40;32.56
40946;BME280;55635;50.264;11.918;2022-09-03T12:45:57;95440.38;;;26.56;34.08
40946;BME280;55635;50.264;11.918;2022-09-03T12:48:38;95446.13;;;27.58;32.62
40946;BME280;55635;50.264;11.918;2022-09-03T12:51:19;95436.59;;;27.74;32.32
40946;BME280;55635;50.264;11.918;2022-09-03T12:54:02;95423.38;;;29.00;30.22
40946;BME280;55635;50.264;11.918;2022-09-03T12:56:55;95425.88;;;27.64;30.96
40946;BME280;55635;50.264;11.918;2022-09-03T12:59:38;95426.59;;;27.13;31.91
40946;BME280;55635;50.264;11.918;2022-09-03T13:02:29;95402.75;;;26.86;32.17
40946;BME280;55635;50.264;11.918;2022-09-03T13:05:23;95410.56;;;26.69;33.30
40946;BME280;55635;50.264;11.918;2022-09-03T13:08:08;95417.84;;;27.53;32.04
40946;BME280;55635;50.264;11.918;2022-09-03T13:10:55;95409.88;;;28.08;31.65
40946;BME280;55635;50.264;11.918;2022-09-03T13:13:37;95402.75;;;28.94;30.65
40946;BME280;55635;50.264;11.918;2022-09-03T13:31:49;95392.31;;;26.70;32.89
40946;BME280;55635;50.264;11.918;2022-09-03T13:41:43;95410.72;;;27.39;31.56
40946;BME280;55635;50.264;11.918;2022-09-03T13:44:49;95401.66;;;27.43;31.69
40946;BME280;55635;50.264;11.918;2022-09-03T13:48:04;95399.09;;;26.72;34.76
40946;BME280;55635;50.264;11.918;2022-09-03T13:51:18;95407.19;;;26.77;35.04
40946;BME280;55635;50.264;11.918;2022-09-03T13:54:34;95400.63;;;28.36;33.67
40946;BME280;55635;50.264;11.918;2022-09-03T13:57:39;95403.13;;;27.87;32.36
40946;BME280;55635;50.264;11.918;2022-09-03T14:00:30;95404.72;;;26.81;33.18
40946;BME280;55635;50.264;11.918;2022-09-03T14:09:34;95400.00;;;25.58;36.49
40946;BME280;55635;50.264;11.918;2022-09-03T14:12:52;95396.16;;;25.64;36.46
40946;BME280;55635;50.264;11.918;2022-09-03T14:15:48;95392.31;;;25.93;35.05
40946;BME280;55635;50.264;11.918;2022-09-03T14:21:44;95393.44;;;26.69;33.88
40946;BME280;55635;50.264;11.918;2022-09-03T14:24:52;95391.81;;;26.44;34.47
40946;BME280;55635;50.264;11.918;2022-09-03T14:27:35;95398.72;;;26.79;34.24
40946;BME280;55635;50.264;11.918;2022-09-03T14:33:53;95391.47;;;26.27;34.58
40946;BME280;55635;50.264;11.918;2022-09-03T14:40:18;95402.66;;;26.25;35.47
40946;BME280;55635;50.264;11.918;2022-09-03T15:01:34;95407.75;;;25.74;36.40
40946;BME280;55635;50.264;11.918;2022-09-03T15:10:54;95394.69;;;25.76;36.79
40946;BME280;55635;50.264;11.918;2022-09-03T15:13:53;95393.75;;;25.57;36.30
40946;BME280;55635;50.264;11.918;2022-09-03T15:20:48;95377.16;;;25.25;36.63
40946;BME280;55635;50.264;11.918;2022-09-03T15:26:40;95390.41;;;25.31;37.42
40946;BME280;55635;50.264;11.918;2022-09-03T15:30:07;95386.69;;;25.22;36.94
40946;BME280;55635;50.264;11.918;2022-09-03T15:36:05;95387.25;;;25.19;37.46
40946;BME280;55635;50.264;11.918;2022-09-03T15:39:02;95389.34;;;25.27;37.99
40946;BME280;55635;50.264;11.918;2022-09-03T15:42:13;95388.84;;;25.25;38.05
40946;BME280;55635;50.264;11.918;2022-09-03T15:45:24;95388.47;;;24.93;38.75
40946;BME280;55635;50.264;11.918;2022-09-03T15:48:33;95393.56;;;25.10;38.87
40946;BME280;55635;50.264;11.918;2022-09-03T15:51:41;95402.03;;;24.98;37.56
40946;BME280;55635;50.264;11.918;2022-09-03T15:58:00;95400.41;;;24.97;38.42
40946;BME280;55635;50.264;11.918;2022-09-03T16:06:32;95402.47;;;24.61;39.24
40946;BME280;55635;50.264;11.918;2022-09-03T16:10:07;95400.06;;;24.50;38.99
40946;BME280;55635;50.264;11.918;2022-09-03T16:19:51;95395.22;;;24.42;39.26
40946;BME280;55635;50.264;11.918;2022-09-03T16:22:50;95402.28;;;24.37;39.38
40946;BME280;55635;50.264;11.918;2022-09-03T16:25:48;95397.66;;;24.38;39.79
40946;BME280;55635;50.264;11.918;2022-09-03T16:28:42;95409.88;;;24.35;39.18
40946;BME280;55635;50.264;11.918;2022-09-03T16:37:45;95410.97;;;24.40;40.81
40946;BME280;55635;50.264;11.918;2022-09-03T16:40:51;95408.06;;;23.91;40.05
40946;BME280;55635;50.264;11.918;2022-09-03T16:47:16;95408.88;;;23.91;40.66
40946;BME280;55635;50.264;11.918;2022-09-03T16:53:52;95425.16;;;23.71;41.11
40946;BME280;55635;50.264;11.918;2022-09-03T17:00:15;95420.00;;;23.84;41.02
40946;BME280;55635;50.264;11.918;2022-09-03T17:06:55;95408.91;;;23.81;40.97
40946;BME280;55635;50.264;11.918;2022-09-03T17:16:28;95418.09;;;23.70;41.41
40946;BME280;55635;50.264;11.918;2022-09-03T17:20:08;95415.66;;;23.83;41.27
40946;BME280;55635;50.264;11.918;2022-09-03T17:26:09;95429.69;;;23.10;43.97
40946;BME280;55635;50.264;11.918;2022-09-03T17:32:28;95430.47;;;22.33;48.44
40946;BME280;55635;50.264;11.918;2022-09-03T17:41:50;95443.50;;;23.08;45.91
40946;BME280;55635;50.264;11.918;2022-09-03T17:50:57;95443.50;;;23.23;48.30
40946;BME280;55635;50.264;11.918;2022-09-03T18:00:08;95460.28;;;23.20;46.29
40946;BME280;55635;50.264;11.918;2022-09-03T18:02:58;95468.13;;;23.17;48.48
40946;BME280;55635;50.264;11.918;2022-09-03T18:05:51;95470.25;;;23.05;48.55
40946;BME280;55635;50.264;11.918;2022-09-03T18:08:56;95473.75;;;23.00;48.25
40946;BME280;55635;50.264;11.918;2022-09-03T18:14:53;95489.13;;;22.38;53.44
40946;BME280;55635;50.264;11.918;2022-09-03T18:17:58;95499.25;;;22.15;54.76
40946;BME280;55635;50.264;11.918;2022-09-03T18:20:51;95501.69;;;21.80;51.13
40946;BME280;55635;50.264;11.918;2022-09-03T18:27:45;95504.88;;;22.09;51.14
40946;BME280;55635;50.264;11.918;2022-09-03T18:30:45;95500.84;;;22.11;50.97
40946;BME280;55635;50.264;11.918;2022-09-03T18:33:44;95502.50;;;22.17;50.83
40946;BME280;55635;50.264;11.918;2022-09-03T18:36:44;95510.66;;;22.22;50.78
40946;BME280;55635;50.264;11.918;2022-09-03T18:39:44;95514.72;;;22.25;51.15
40946;BME280;55635;50.264;11.918;2022-09-03T18:43:04;95506.13;;;22.33;51.88